createdAt,value
2022-10-09T00:02:55.483Z,85.90
2022-10-09T00:11:03.392Z,86.60
2022-10-09T00:19:08.762Z,85.90
2022-10-09T00:27:16.671Z,87.40
2022-10-09T00:35:22.231Z,86.80
2022-10-09T00:43:47.463Z,87.20
2022-10-09T00:51:54.641Z,87.40
2022-10-09T01:00:04.861Z,86.80
2022-10-09T01:08:17.303Z,86.20
2022-10-09T01:16:30.247Z,86.20
2022-10-09T01:24:42.230Z,86.50
2022-10-09T01:32:53.770Z,85.80
2022-10-09T01:40:59.974Z,86.40
2022-10-09T01:49:18.496Z,86.20
2022-10-09T01:57:30.436Z,86.60
2022-10-09T02:05:40.145Z,87.30
2022-10-09T02:13:46.861Z,86.50
2022-10-09T02:21:58.615Z,87.90
2022-10-09T02:30:04.618Z,87.50
2022-10-09T02:38:12.529Z,87.00
2022-10-09T02:46:18.225Z,86.60
2022-10-09T02:54:26.127Z,86.40
2022-10-09T03:02:31.511Z,86.30
2022-10-09T03:10:42.043Z,88.00
2022-10-09T03:18:48.150Z,87.70
2022-10-09T03:26:56.104Z,87.40
2022-10-09T03:35:01.408Z,87.60
2022-10-09T03:43:09.969Z,88.20
2022-10-09T03:51:15.258Z,86.70
2022-10-09T03:59:23.194Z,87.70
2022-10-09T04:07:28.550Z,87.30
2022-10-09T04:15:36.959Z,87.30
2022-10-09T04:23:42.539Z,87.40
2022-10-09T04:31:50.499Z,87.10
2022-10-09T04:39:55.786Z,88.40
2022-10-09T04:48:03.693Z,87.70
2022-10-09T04:56:12.294Z,88.00
2022-10-09T05:04:20.165Z,87.80
2022-10-09T05:12:25.487Z,88.60
2022-10-09T05:20:33.433Z,88.60
2022-10-09T05:28:39.238Z,87.90
2022-10-09T05:36:47.298Z,87.80
2022-10-09T05:44:52.565Z,88.00
2022-10-09T05:53:00.419Z,87.10
2022-10-09T06:01:05.731Z,86.30
2022-10-09T06:09:14.901Z,85.70
2022-10-09T06:17:20.245Z,85.60
2022-10-09T06:25:28.188Z,83.90
2022-10-09T06:33:35.000Z,82.80
2022-10-09T06:41:42.982Z,81.30
2022-10-09T06:50:07.918Z,81.20
2022-10-09T06:58:15.809Z,79.60
2022-10-09T07:06:23.236Z,80.00
2022-10-09T07:14:33.198Z,78.10
2022-10-09T07:22:38.578Z,76.20
2022-10-09T07:30:46.441Z,76.80
2022-10-09T07:38:54.039Z,76.20
2022-10-09T07:47:01.919Z,75.70
2022-10-09T07:55:08.007Z,74.30
2022-10-09T08:03:15.932Z,72.80
2022-10-09T08:11:22.813Z,72.60
2022-10-09T08:19:30.763Z,72.80
2022-10-09T08:27:36.071Z,72.60
2022-10-09T08:35:44.095Z,71.60
2022-10-09T08:43:56.747Z,68.80
2022-10-09T08:52:15.553Z,68.00
2022-10-09T09:00:23.223Z,65.80
2022-10-09T09:08:42.390Z,64.90
2022-10-09T09:16:54.967Z,63.80
2022-10-09T09:25:04.817Z,61.60
2022-10-09T09:33:18.638Z,60.20
2022-10-09T09:41:26.504Z,53.00
2022-10-09T09:49:31.835Z,44.40
2022-10-09T09:57:45.637Z,37.90
2022-10-09T10:05:51.010Z,34.40
2022-10-09T10:13:59.152Z,32.90
2022-10-09T10:22:05.834Z,31.40
2022-10-09T10:30:17.132Z,30.70
2022-10-09T10:38:28.481Z,30.70
2022-10-09T10:46:49.053Z,29.90
2022-10-09T10:55:01.756Z,29.90
2022-10-09T11:03:34.495Z,29.20
2022-10-09T11:11:47.293Z,29.10
2022-10-09T11:20:33.467Z,34.80
2022-10-09T11:28:46.623Z,41.30
2022-10-09T11:36:54.773Z,44.80
2022-10-09T11:45:17.804Z,47.30
2022-10-09T11:53:28.585Z,49.50
2022-10-09T12:01:37.685Z,51.80
2022-10-09T12:09:47.776Z,51.50
2022-10-09T12:17:53.085Z,53.00
2022-10-09T12:26:02.095Z,55.50
2022-10-09T12:34:18.474Z,56.80
2022-10-09T12:42:27.944Z,55.90
2022-10-09T12:50:36.097Z,55.30
2022-10-09T12:58:45.158Z,55.70
2022-10-09T13:06:52.972Z,55.80
2022-10-09T13:15:02.360Z,55.90
2022-10-09T13:23:08.999Z,55.90
2022-10-09T13:31:18.583Z,57.20
2022-10-09T13:39:23.909Z,59.00
2022-10-09T13:47:32.031Z,58.70
2022-10-09T13:55:37.316Z,58.80
2022-10-09T14:03:47.408Z,58.30
2022-10-09T14:11:52.759Z,58.80
2022-10-09T14:20:00.947Z,59.00
2022-10-09T14:28:06.566Z,59.90
2022-10-09T14:36:18.728Z,60.40
2022-10-09T14:44:23.986Z,61.00
2022-10-09T14:52:31.957Z,61.40
2022-10-09T15:00:37.264Z,62.00
2022-10-09T15:08:47.408Z,63.40
2022-10-09T15:16:52.693Z,63.60
2022-10-09T15:25:00.629Z,64.20
2022-10-09T15:33:06.114Z,65.00
2022-10-09T15:41:24.137Z,65.50
2022-10-09T15:49:29.532Z,66.30
2022-10-09T15:57:37.378Z,66.50
2022-10-09T16:05:45.456Z,67.30
2022-10-09T16:13:53.390Z,68.30
2022-10-09T16:21:58.704Z,68.60
2022-10-09T16:30:08.604Z,70.00
2022-10-09T16:38:14.046Z,70.30
2022-10-09T16:46:26.058Z,70.40
2022-10-09T16:54:31.398Z,71.40
2022-10-09T17:02:39.448Z,72.20
2022-10-09T17:10:45.010Z,72.90
2022-10-09T17:18:54.524Z,74.00
2022-10-09T17:27:00.243Z,74.60
2022-10-09T17:35:09.433Z,75.50
2022-10-09T17:43:14.806Z,75.90
2022-10-09T17:51:25.516Z,76.50
2022-10-09T17:59:31.350Z,77.60
2022-10-09T18:07:39.401Z,77.80
2022-10-09T18:15:46.649Z,78.10
2022-10-09T18:23:55.051Z,78.20
2022-10-09T18:32:00.337Z,78.00
2022-10-09T18:40:10.127Z,79.00
2022-10-09T18:48:15.519Z,79.30
2022-10-09T18:56:25.099Z,79.20
2022-10-09T19:04:30.454Z,79.50
2022-10-09T19:12:38.652Z,79.10
2022-10-09T19:20:43.959Z,79.60
2022-10-09T19:28:52.226Z,79.60
2022-10-09T19:36:57.536Z,79.90
2022-10-09T19:45:05.507Z,80.60
2022-10-09T19:53:10.839Z,81.20
2022-10-09T20:01:20.680Z,81.40
2022-10-09T20:09:26.234Z,81.30
2022-10-09T20:17:34.205Z,81.50
2022-10-09T20:25:39.539Z,81.60
2022-10-09T20:33:48.760Z,82.20
2022-10-09T20:41:54.086Z,82.40
2022-10-09T20:50:02.072Z,82.40
2022-10-09T20:58:07.673Z,82.30
2022-10-09T21:06:17.932Z,82.30
2022-10-09T21:14:23.219Z,83.30
2022-10-09T21:22:31.176Z,84.10
2022-10-09T21:30:41.857Z,83.70
2022-10-09T21:38:49.811Z,83.20
2022-10-09T21:46:55.139Z,83.10
2022-10-09T21:55:03.139Z,83.60
2022-10-09T22:03:08.712Z,83.60
2022-10-09T22:11:16.605Z,83.70
2022-10-09T22:19:21.817Z,83.50
2022-10-09T22:27:29.741Z,84.60
2022-10-09T22:35:34.927Z,84.60
2022-10-09T22:43:43.596Z,85.10
2022-10-09T22:51:49.003Z,85.60
2022-10-09T22:59:56.863Z,85.40
2022-10-09T23:08:02.115Z,85.40
2022-10-09T23:16:12.471Z,86.00
2022-10-09T23:24:18.835Z,85.60
2022-10-09T23:32:26.793Z,85.90
2022-10-09T23:40:32.089Z,87.00
2022-10-09T23:48:40.224Z,86.60
2022-10-09T23:56:45.670Z,87.00
